Regan, ND (58477)

2:43 AM CST on February 08, 2016 (GMT -0600)
136 Ave NW | | Change Station
CLOSE
Current Station
Personal Weather Station
Location: Bismarck, ND
Elevation: 1932 ft
Nearby Weather Stations

Elev 1932 ft 46.95 °N, 100.83 °W | Updated 10 seconds ago

Clear
Clear
24.4 °F
Feels Like 9 °F
N
22.8
Wind Variable Wind from NW
Gusts 24.8 mph

Today
High -- | Low -- °F
--% Chance of Precip.
Yesterday
High -- | Low -- °F
Precip. -- in
Pressure 30.26 in
Visibility 10.0 miles
Clouds Clear
Windchill 9 °F
Dew Point 14 °F
Humidity 63%
Rainfall 0.00 in
Snow Depth Not available.
7:58 AM 5:54 PM
Waning Crescent, 0% visible
METAR KBIS 080752Z AUTO 32018G28KT 10SM CLR M02/M08 A3020 RMK AO2 PK WND 33037/0712 SLP246 T10171083
Pressure 30.26 in
Visibility 10.0 miles
Clouds Clear
Windchill 9 °F
Dew Point 14 °F
Humidity 63%
Rainfall 0.00 in
Snow Depth Not available.
7:58 AM 5:54 PM
Waning Crescent, 0% visible
METAR KBIS 080752Z AUTO 32018G28KT 10SM CLR M02/M08 A3020 RMK AO2 PK WND 33037/0712 SLP246 T10171083

10-Day Weather Forecast

Almanac

Astronomy

Feb. 08, 2016 Rise Set
Actual Time
Civil Twilight
Nautical Twilight
Astronomical Twilight
Moon
Length of Visible Light
Length of Day
Tomorrow will be .
, % of the Moon is Illuminated

Today's Extremes

State Highs State Lows

Community

WunderPhotos

Upload Photos

1,891,412 photos uploaded!

WunderBlog® & News

Nearby

Air Quality

  Air Quality AQ Index Pollutant
Not available.

Snow Depth

Station Depth Elevation

Earthquake Activity

City Distance Mag. Time & Date
Minimum magnitude displayed is 2.5.

Coastal Water Temperatures

Place Temperature

Stations

Nearby Weather Stations

Station Location Temp. Windchill Dew Point Humidity Wind Precip. Elev Updated Type
                   

Watches & Warnings

Wind Advisory
Issued: 11:25 PM MST Feb. 7, 2016 – National Weather Service

... Wind Advisory remains in effect until 6 am CST /5 am MST/
early this morning...

* timing... until 6 am CST Monday or 5 am MST Monday.

* Winds... northwest winds gusting up to 45 mph... gradually
decreasing by early Monday morning.

* Impacts... travel will be difficult... especially for those
driving high profile vehicles.

Precautionary/preparedness actions...

Use extra caution and hang on to the wheel if you are driving.